sensor_id;sensor_type;location;lat;lon;timestamp;P1;durP1;ratioP1;P2;durP2;ratioP2
70757;SDS011;59316;52.964;7.102;2023-08-08T00:01:33;6.90;;;3.08;;
70757;SDS011;59316;52.964;7.102;2023-08-08T00:06:54;9.52;;;3.22;;
70757;SDS011;59316;52.964;7.102;2023-08-08T00:12:16;5.60;;;3.67;;
70757;SDS011;59316;52.964;7.102;2023-08-08T00:17:37;5.72;;;3.22;;
70757;SDS011;59316;52.964;7.102;2023-08-08T00:22:58;7.22;;;3.67;;
70757;SDS011;59316;52.964;7.102;2023-08-08T00:28:20;6.95;;;3.85;;
70757;SDS011;59316;52.964;7.102;2023-08-08T00:33:41;7.60;;;3.95;;
70757;SDS011;59316;52.964;7.102;2023-08-08T00:39:03;7.38;;;4.40;;
70757;SDS011;59316;52.964;7.102;2023-08-08T00:44:24;5.88;;;4.15;;
70757;SDS011;59316;52.964;7.102;2023-08-08T00:49:45;6.28;;;4.05;;
70757;SDS011;59316;52.964;7.102;2023-08-08T00:55:07;8.75;;;4.15;;
70757;SDS011;59316;52.964;7.102;2023-08-08T01:00:29;6.07;;;3.97;;
70757;SDS011;59316;52.964;7.102;2023-08-08T01:05:51;9.40;;;4.20;;
70757;SDS011;59316;52.964;7.102;2023-08-08T01:11:30;6.35;;;4.13;;
70757;SDS011;59316;52.964;7.102;2023-08-08T01:16:55;7.57;;;4.07;;
70757;SDS011;59316;52.964;7.102;2023-08-08T01:27:45;11.07;;;4.68;;
70757;SDS011;59316;52.964;7.102;2023-08-08T01:33:07;9.07;;;4.38;;
70757;SDS011;59316;52.964;7.102;2023-08-08T01:38:33;9.98;;;4.40;;
70757;SDS011;59316;52.964;7.102;2023-08-08T01:44:02;7.47;;;4.38;;
70757;SDS011;59316;52.964;7.102;2023-08-08T01:49:24;8.63;;;3.95;;
70757;SDS011;59316;52.964;7.102;2023-08-08T01:54:45;7.07;;;4.20;;
70757;SDS011;59316;52.964;7.102;2023-08-08T02:00:07;9.95;;;4.55;;
70757;SDS011;59316;52.964;7.102;2023-08-08T02:05:35;9.68;;;5.47;;
70757;SDS011;59316;52.964;7.102;2023-08-08T02:10:57;13.63;;;5.65;;
70757;SDS011;59316;52.964;7.102;2023-08-08T02:16:18;11.65;;;5.43;;
70757;SDS011;59316;52.964;7.102;2023-08-08T02:21:39;9.25;;;5.32;;
70757;SDS011;59316;52.964;7.102;2023-08-08T02:27:01;11.88;;;5.93;;
70757;SDS011;59316;52.964;7.102;2023-08-08T02:32:23;11.68;;;4.78;;
70757;SDS011;59316;52.964;7.102;2023-08-08T02:37:47;10.30;;;4.82;;
70757;SDS011;59316;52.964;7.102;2023-08-08T02:43:08;11.40;;;5.15;;
70757;SDS011;59316;52.964;7.102;2023-08-08T02:48:30;8.73;;;5.07;;
70757;SDS011;59316;52.964;7.102;2023-08-08T02:53:51;8.30;;;4.65;;
70757;SDS011;59316;52.964;7.102;2023-08-08T02:59:14;7.55;;;4.88;;
70757;SDS011;59316;52.964;7.102;2023-08-08T03:04:37;9.18;;;5.07;;
70757;SDS011;59316;52.964;7.102;2023-08-08T03:10:00;11.52;;;5.45;;
70757;SDS011;59316;52.964;7.102;2023-08-08T03:15:24;7.28;;;4.70;;
70757;SDS011;59316;52.964;7.102;2023-08-08T03:20:46;8.27;;;4.95;;
70757;SDS011;59316;52.964;7.102;2023-08-08T03:26:09;9.13;;;5.03;;
70757;SDS011;59316;52.964;7.102;2023-08-08T03:31:31;9.32;;;4.43;;
70757;SDS011;59316;52.964;7.102;2023-08-08T03:36:56;9.48;;;4.70;;
70757;SDS011;59316;52.964;7.102;2023-08-08T03:42:18;11.90;;;5.55;;
70757;SDS011;59316;52.964;7.102;2023-08-08T03:47:40;8.88;;;4.90;;
70757;SDS011;59316;52.964;7.102;2023-08-08T03:53:01;12.85;;;5.47;;
70757;SDS011;59316;52.964;7.102;2023-08-08T03:58:23;11.20;;;5.50;;
70757;SDS011;59316;52.964;7.102;2023-08-08T04:03:45;9.93;;;4.95;;
70757;SDS011;59316;52.964;7.102;2023-08-08T04:09:06;16.05;;;5.50;;
70757;SDS011;59316;52.964;7.102;2023-08-08T04:14:27;9.82;;;5.25;;
70757;SDS011;59316;52.964;7.102;2023-08-08T04:19:49;10.05;;;5.35;;
70757;SDS011;59316;52.964;7.102;2023-08-08T04:25:10;16.73;;;6.22;;
70757;SDS011;59316;52.964;7.102;2023-08-08T04:30:32;13.95;;;5.22;;
70757;SDS011;59316;52.964;7.102;2023-08-08T04:35:53;11.48;;;5.47;;
70757;SDS011;59316;52.964;7.102;2023-08-08T04:41:14;8.85;;;4.90;;
70757;SDS011;59316;52.964;7.102;2023-08-08T04:46:36;9.27;;;4.90;;
70757;SDS011;59316;52.964;7.102;2023-08-08T04:51:57;7.05;;;3.90;;
70757;SDS011;59316;52.964;7.102;2023-08-08T04:57:19;9.38;;;3.35;;
70757;SDS011;59316;52.964;7.102;2023-08-08T05:02:40;8.20;;;3.72;;
70757;SDS011;59316;52.964;7.102;2023-08-08T05:08:01;9.20;;;3.38;;
70757;SDS011;59316;52.964;7.102;2023-08-08T05:13:23;7.18;;;3.42;;
70757;SDS011;59316;52.964;7.102;2023-08-08T05:18:44;7.32;;;3.20;;
70757;SDS011;59316;52.964;7.102;2023-08-08T05:24:06;6.95;;;2.85;;
70757;SDS011;59316;52.964;7.102;2023-08-08T05:29:27;5.68;;;2.83;;
70757;SDS011;59316;52.964;7.102;2023-08-08T05:34:50;10.05;;;2.53;;
70757;SDS011;59316;52.964;7.102;2023-08-08T05:40:11;4.60;;;2.27;;
70757;SDS011;59316;52.964;7.102;2023-08-08T05:45:33;8.73;;;2.03;;
70757;SDS011;59316;52.964;7.102;2023-08-08T05:50:55;6.40;;;1.77;;
70757;SDS011;59316;52.964;7.102;2023-08-08T05:56:16;2.33;;;1.40;;
70757;SDS011;59316;52.964;7.102;2023-08-08T06:01:37;10.07;;;1.63;;
70757;SDS011;59316;52.964;7.102;2023-08-08T06:06:58;7.45;;;1.73;;
70757;SDS011;59316;52.964;7.102;2023-08-08T06:12:19;5.00;;;1.45;;
70757;SDS011;59316;52.964;7.102;2023-08-08T06:17:41;2.92;;;1.27;;
70757;SDS011;59316;52.964;7.102;2023-08-08T06:23:02;3.72;;;1.20;;
70757;SDS011;59316;52.964;7.102;2023-08-08T06:28:24;2.30;;;1.38;;
70757;SDS011;59316;52.964;7.102;2023-08-08T06:33:46;3.10;;;1.00;;
70757;SDS011;59316;52.964;7.102;2023-08-08T06:39:07;4.47;;;1.17;;
70757;SDS011;59316;52.964;7.102;2023-08-08T06:44:28;3.50;;;1.15;;
70757;SDS011;59316;52.964;7.102;2023-08-08T06:49:52;3.78;;;0.95;;
70757;SDS011;59316;52.964;7.102;2023-08-08T06:55:13;3.80;;;1.13;;
70757;SDS011;59316;52.964;7.102;2023-08-08T07:00:35;4.30;;;1.35;;
70757;SDS011;59316;52.964;7.102;2023-08-08T07:05:56;2.58;;;1.15;;
70757;SDS011;59316;52.964;7.102;2023-08-08T07:11:18;3.08;;;1.00;;
70757;SDS011;59316;52.964;7.102;2023-08-08T07:16:40;3.20;;;0.90;;
70757;SDS011;59316;52.964;7.102;2023-08-08T07:22:01;3.28;;;1.00;;
70757;SDS011;59316;52.964;7.102;2023-08-08T07:27:23;3.65;;;0.80;;
70757;SDS011;59316;52.964;7.102;2023-08-08T07:32:46;3.30;;;1.00;;
70757;SDS011;59316;52.964;7.102;2023-08-08T07:38:07;2.08;;;0.80;;
70757;SDS011;59316;52.964;7.102;2023-08-08T07:43:29;1.88;;;1.33;;
70757;SDS011;59316;52.964;7.102;2023-08-08T07:48:50;2.85;;;0.98;;
70757;SDS011;59316;52.964;7.102;2023-08-08T07:54:12;4.20;;;1.00;;
70757;SDS011;59316;52.964;7.102;2023-08-08T07:59:33;6.30;;;1.00;;
70757;SDS011;59316;52.964;7.102;2023-08-08T08:04:54;2.10;;;0.65;;
70757;SDS011;59316;52.964;7.102;2023-08-08T08:10:18;1.67;;;0.63;;
70757;SDS011;59316;52.964;7.102;2023-08-08T08:15:39;4.38;;;0.90;;
70757;SDS011;59316;52.964;7.102;2023-08-08T08:21:01;1.33;;;0.90;;
70757;SDS011;59316;52.964;7.102;2023-08-08T08:26:22;3.95;;;1.00;;
70757;SDS011;59316;52.964;7.102;2023-08-08T08:31:47;2.63;;;0.80;;
70757;SDS011;59316;52.964;7.102;2023-08-08T08:37:17;2.70;;;1.00;;
70757;SDS011;59316;52.964;7.102;2023-08-08T08:42:39;4.85;;;1.00;;
70757;SDS011;59316;52.964;7.102;2023-08-08T08:48:00;3.63;;;0.93;;
70757;SDS011;59316;52.964;7.102;2023-08-08T08:53:22;1.52;;;0.60;;
70757;SDS011;59316;52.964;7.102;2023-08-08T08:58:43;3.20;;;0.85;;
70757;SDS011;59316;52.964;7.102;2023-08-08T09:04:06;1.48;;;0.70;;
70757;SDS011;59316;52.964;7.102;2023-08-08T09:09:31;6.93;;;1.05;;
70757;SDS011;59316;52.964;7.102;2023-08-08T09:14:55;5.07;;;0.80;;
70757;SDS011;59316;52.964;7.102;2023-08-08T09:20:17;2.75;;;0.90;;
70757;SDS011;59316;52.964;7.102;2023-08-08T09:25:38;4.07;;;0.93;;
70757;SDS011;59316;52.964;7.102;2023-08-08T09:31:00;1.27;;;0.60;;
70757;SDS011;59316;52.964;7.102;2023-08-08T09:36:22;3.17;;;1.00;;
70757;SDS011;59316;52.964;7.102;2023-08-08T09:41:45;2.65;;;0.80;;
70757;SDS011;59316;52.964;7.102;2023-08-08T09:47:11;3.17;;;0.83;;
70757;SDS011;59316;52.964;7.102;2023-08-08T09:52:33;3.45;;;1.10;;
70757;SDS011;59316;52.964;7.102;2023-08-08T09:57:57;2.60;;;0.98;;
70757;SDS011;59316;52.964;7.102;2023-08-08T10:03:19;2.40;;;0.80;;
70757;SDS011;59316;52.964;7.102;2023-08-08T10:08:40;3.83;;;1.20;;
70757;SDS011;59316;52.964;7.102;2023-08-08T10:14:03;3.10;;;1.40;;
70757;SDS011;59316;52.964;7.102;2023-08-08T10:19:24;1.95;;;0.90;;
70757;SDS011;59316;52.964;7.102;2023-08-08T10:24:46;3.33;;;0.93;;
70757;SDS011;59316;52.964;7.102;2023-08-08T10:30:08;3.70;;;0.98;;
70757;SDS011;59316;52.964;7.102;2023-08-08T10:35:36;2.97;;;0.70;;
70757;SDS011;59316;52.964;7.102;2023-08-08T10:40:58;4.03;;;1.00;;
70757;SDS011;59316;52.964;7.102;2023-08-08T10:46:26;2.90;;;0.90;;
70757;SDS011;59316;52.964;7.102;2023-08-08T10:51:49;5.43;;;1.20;;
70757;SDS011;59316;52.964;7.102;2023-08-08T10:57:15;6.65;;;1.23;;
70757;SDS011;59316;52.964;7.102;2023-08-08T11:02:36;2.92;;;1.10;;
70757;SDS011;59316;52.964;7.102;2023-08-08T11:07:59;4.00;;;1.00;;
70757;SDS011;59316;52.964;7.102;2023-08-08T11:13:21;2.50;;;0.90;;
70757;SDS011;59316;52.964;7.102;2023-08-08T11:18:43;1.85;;;0.75;;
70757;SDS011;59316;52.964;7.102;2023-08-08T11:24:04;1.67;;;0.90;;
70757;SDS011;59316;52.964;7.102;2023-08-08T11:29:26;1.70;;;0.73;;
70757;SDS011;59316;52.964;7.102;2023-08-08T11:34:48;2.38;;;0.88;;
70757;SDS011;59316;52.964;7.102;2023-08-08T11:40:09;4.75;;;1.20;;
70757;SDS011;59316;52.964;7.102;2023-08-08T11:45:32;3.08;;;0.68;;
70757;SDS011;59316;52.964;7.102;2023-08-08T11:50:54;3.72;;;0.82;;
70757;SDS011;59316;52.964;7.102;2023-08-08T11:56:15;3.50;;;0.90;;
70757;SDS011;59316;52.964;7.102;2023-08-08T12:01:37;3.05;;;0.90;;
70757;SDS011;59316;52.964;7.102;2023-08-08T12:07:03;2.63;;;0.98;;
70757;SDS011;59316;52.964;7.102;2023-08-08T12:12:25;2.53;;;1.00;;
70757;SDS011;59316;52.964;7.102;2023-08-08T12:17:48;3.55;;;0.70;;
70757;SDS011;59316;52.964;7.102;2023-08-08T12:23:10;3.00;;;0.82;;
70757;SDS011;59316;52.964;7.102;2023-08-08T12:28:32;1.67;;;0.70;;
70757;SDS011;59316;52.964;7.102;2023-08-08T12:33:54;1.88;;;0.90;;
70757;SDS011;59316;52.964;7.102;2023-08-08T12:39:15;4.15;;;1.15;;
70757;SDS011;59316;52.964;7.102;2023-08-08T12:44:37;2.28;;;1.00;;
70757;SDS011;59316;52.964;7.102;2023-08-08T12:49:58;3.78;;;0.88;;
70757;SDS011;59316;52.964;7.102;2023-08-08T12:55:19;1.95;;;1.08;;
70757;SDS011;59316;52.964;7.102;2023-08-08T13:00:40;2.35;;;1.05;;
70757;SDS011;59316;52.964;7.102;2023-08-08T13:06:02;4.80;;;0.77;;
70757;SDS011;59316;52.964;7.102;2023-08-08T13:11:23;1.63;;;0.77;;
70757;SDS011;59316;52.964;7.102;2023-08-08T13:16:46;1.00;;;0.50;;
70757;SDS011;59316;52.964;7.102;2023-08-08T13:22:07;2.63;;;0.80;;
70757;SDS011;59316;52.964;7.102;2023-08-08T13:27:29;4.10;;;0.70;;
70757;SDS011;59316;52.964;7.102;2023-08-08T13:32:50;1.85;;;0.80;;
70757;SDS011;59316;52.964;7.102;2023-08-08T13:38:11;3.33;;;0.85;;
70757;SDS011;59316;52.964;7.102;2023-08-08T13:43:32;2.47;;;0.70;;
70757;SDS011;59316;52.964;7.102;2023-08-08T13:48:53;4.53;;;1.00;;
70757;SDS011;59316;52.964;7.102;2023-08-08T13:54:14;4.15;;;1.08;;
70757;SDS011;59316;52.964;7.102;2023-08-08T13:59:36;4.57;;;0.90;;
70757;SDS011;59316;52.964;7.102;2023-08-08T14:04:57;3.90;;;1.08;;
70757;SDS011;59316;52.964;7.102;2023-08-08T14:10:18;4.50;;;0.80;;
70757;SDS011;59316;52.964;7.102;2023-08-08T14:15:40;2.85;;;0.93;;
70757;SDS011;59316;52.964;7.102;2023-08-08T14:21:01;3.80;;;1.20;;
70757;SDS011;59316;52.964;7.102;2023-08-08T14:26:23;6.07;;;1.10;;
70757;SDS011;59316;52.964;7.102;2023-08-08T14:31:44;2.22;;;0.93;;
70757;SDS011;59316;52.964;7.102;2023-08-08T14:37:21;3.92;;;0.73;;
70757;SDS011;59316;52.964;7.102;2023-08-08T14:42:42;1.95;;;0.75;;
70757;SDS011;59316;52.964;7.102;2023-08-08T14:48:04;1.83;;;0.70;;
70757;SDS011;59316;52.964;7.102;2023-08-08T14:53:25;1.88;;;0.77;;
70757;SDS011;59316;52.964;7.102;2023-08-08T14:58:47;4.22;;;1.00;;
70757;SDS011;59316;52.964;7.102;2023-08-08T15:04:08;2.92;;;1.00;;
70757;SDS011;59316;52.964;7.102;2023-08-08T15:09:29;4.05;;;0.85;;
70757;SDS011;59316;52.964;7.102;2023-08-08T15:14:50;1.88;;;0.70;;
70757;SDS011;59316;52.964;7.102;2023-08-08T15:20:11;3.03;;;0.80;;
70757;SDS011;59316;52.964;7.102;2023-08-08T15:25:33;2.60;;;1.02;;
70757;SDS011;59316;52.964;7.102;2023-08-08T15:30:54;3.40;;;0.70;;
70757;SDS011;59316;52.964;7.102;2023-08-08T15:36:16;2.72;;;1.00;;
70757;SDS011;59316;52.964;7.102;2023-08-08T15:41:37;5.40;;;0.70;;
70757;SDS011;59316;52.964;7.102;2023-08-08T15:46:58;2.50;;;0.90;;
70757;SDS011;59316;52.964;7.102;2023-08-08T15:52:20;3.65;;;1.25;;
70757;SDS011;59316;52.964;7.102;2023-08-08T15:57:41;0.95;;;0.45;;
70757;SDS011;59316;52.964;7.102;2023-08-08T16:03:03;1.13;;;0.50;;
70757;SDS011;59316;52.964;7.102;2023-08-08T16:08:24;2.92;;;0.60;;
70757;SDS011;59316;52.964;7.102;2023-08-08T16:13:46;3.83;;;0.60;;
70757;SDS011;59316;52.964;7.102;2023-08-08T16:19:07;1.42;;;0.70;;
70757;SDS011;59316;52.964;7.102;2023-08-08T16:24:28;0.90;;;0.60;;
70757;SDS011;59316;52.964;7.102;2023-08-08T16:29:49;1.75;;;0.60;;
70757;SDS011;59316;52.964;7.102;2023-08-08T16:35:11;2.13;;;0.60;;
70757;SDS011;59316;52.964;7.102;2023-08-08T16:40:32;2.05;;;0.82;;
70757;SDS011;59316;52.964;7.102;2023-08-08T16:45:53;3.83;;;0.98;;
70757;SDS011;59316;52.964;7.102;2023-08-08T16:51:14;2.97;;;0.68;;
70757;SDS011;59316;52.964;7.102;2023-08-08T16:56:36;2.38;;;0.60;;
70757;SDS011;59316;52.964;7.102;2023-08-08T17:01:57;4.32;;;0.77;;
70757;SDS011;59316;52.964;7.102;2023-08-08T17:07:19;4.18;;;0.85;;
70757;SDS011;59316;52.964;7.102;2023-08-08T17:12:40;7.45;;;0.82;;
70757;SDS011;59316;52.964;7.102;2023-08-08T17:18:02;2.05;;;1.00;;
70757;SDS011;59316;52.964;7.102;2023-08-08T17:23:24;4.32;;;0.77;;
70757;SDS011;59316;52.964;7.102;2023-08-08T17:28:45;6.10;;;1.00;;
70757;SDS011;59316;52.964;7.102;2023-08-08T17:34:06;4.60;;;0.82;;
70757;SDS011;59316;52.964;7.102;2023-08-08T17:39:28;4.07;;;0.70;;
70757;SDS011;59316;52.964;7.102;2023-08-08T17:44:49;6.13;;;0.90;;
70757;SDS011;59316;52.964;7.102;2023-08-08T17:50:10;2.75;;;0.73;;
70757;SDS011;59316;52.964;7.102;2023-08-08T17:55:31;2.15;;;0.52;;
70757;SDS011;59316;52.964;7.102;2023-08-08T18:00:53;3.38;;;0.70;;
70757;SDS011;59316;52.964;7.102;2023-08-08T18:06:14;2.03;;;0.63;;
70757;SDS011;59316;52.964;7.102;2023-08-08T18:11:35;3.45;;;1.30;;
70757;SDS011;59316;52.964;7.102;2023-08-08T18:16:56;1.45;;;0.70;;
70757;SDS011;59316;52.964;7.102;2023-08-08T18:22:18;5.93;;;1.23;;
70757;SDS011;59316;52.964;7.102;2023-08-08T18:27:39;2.78;;;0.80;;
70757;SDS011;59316;52.964;7.102;2023-08-08T18:33:00;2.60;;;1.00;;
70757;SDS011;59316;52.964;7.102;2023-08-08T18:38:21;5.10;;;0.80;;
70757;SDS011;59316;52.964;7.102;2023-08-08T18:43:42;2.85;;;0.90;;
70757;SDS011;59316;52.964;7.102;2023-08-08T18:49:04;4.25;;;0.80;;
70757;SDS011;59316;52.964;7.102;2023-08-08T18:54:27;1.60;;;0.73;;
70757;SDS011;59316;52.964;7.102;2023-08-08T18:59:48;4.30;;;0.80;;
70757;SDS011;59316;52.964;7.102;2023-08-08T19:05:09;2.60;;;0.80;;
70757;SDS011;59316;52.964;7.102;2023-08-08T19:10:31;6.07;;;1.08;;
70757;SDS011;59316;52.964;7.102;2023-08-08T19:15:52;2.25;;;0.80;;
70757;SDS011;59316;52.964;7.102;2023-08-08T19:21:13;3.17;;;0.80;;
70757;SDS011;59316;52.964;7.102;2023-08-08T19:26:35;3.03;;;1.00;;
70757;SDS011;59316;52.964;7.102;2023-08-08T19:31:56;2.60;;;0.90;;
70757;SDS011;59316;52.964;7.102;2023-08-08T19:37:19;3.35;;;0.82;;
70757;SDS011;59316;52.964;7.102;2023-08-08T19:42:40;2.92;;;0.88;;
70757;SDS011;59316;52.964;7.102;2023-08-08T19:48:02;4.05;;;1.00;;
70757;SDS011;59316;52.964;7.102;2023-08-08T19:53:23;3.95;;;0.90;;
70757;SDS011;59316;52.964;7.102;2023-08-08T19:58:45;4.68;;;0.90;;
70757;SDS011;59316;52.964;7.102;2023-08-08T20:04:06;5.53;;;0.95;;
70757;SDS011;59316;52.964;7.102;2023-08-08T20:09:27;2.30;;;0.80;;
70757;SDS011;59316;52.964;7.102;2023-08-08T20:14:49;2.03;;;0.77;;
70757;SDS011;59316;52.964;7.102;2023-08-08T20:20:10;2.40;;;0.90;;
70757;SDS011;59316;52.964;7.102;2023-08-08T20:25:32;5.70;;;1.00;;
70757;SDS011;59316;52.964;7.102;2023-08-08T20:30:53;7.80;;;1.00;;
70757;SDS011;59316;52.964;7.102;2023-08-08T20:36:14;4.78;;;0.80;;
70757;SDS011;59316;52.964;7.102;2023-08-08T20:41:36;2.65;;;0.90;;
70757;SDS011;59316;52.964;7.102;2023-08-08T20:46:57;2.92;;;0.98;;
70757;SDS011;59316;52.964;7.102;2023-08-08T20:52:19;3.53;;;0.90;;
70757;SDS011;59316;52.964;7.102;2023-08-08T20:57:40;2.65;;;0.93;;
70757;SDS011;59316;52.964;7.102;2023-08-08T21:03:01;6.35;;;1.42;;
70757;SDS011;59316;52.964;7.102;2023-08-08T21:08:23;2.80;;;1.30;;
70757;SDS011;59316;52.964;7.102;2023-08-08T21:13:44;3.22;;;1.02;;
70757;SDS011;59316;52.964;7.102;2023-08-08T21:19:05;3.53;;;1.10;;
70757;SDS011;59316;52.964;7.102;2023-08-08T21:24:27;4.88;;;1.17;;
70757;SDS011;59316;52.964;7.102;2023-08-08T21:29:48;1.60;;;1.00;;
70757;SDS011;59316;52.964;7.102;2023-08-08T21:35:10;7.20;;;0.98;;
70757;SDS011;59316;52.964;7.102;2023-08-08T21:40:31;4.80;;;1.15;;
70757;SDS011;59316;52.964;7.102;2023-08-08T21:45:52;5.55;;;1.23;;
70757;SDS011;59316;52.964;7.102;2023-08-08T21:51:14;4.60;;;1.25;;
70757;SDS011;59316;52.964;7.102;2023-08-08T21:56:35;6.00;;;1.38;;
70757;SDS011;59316;52.964;7.102;2023-08-08T22:01:56;5.15;;;1.20;;
70757;SDS011;59316;52.964;7.102;2023-08-08T22:07:18;3.42;;;1.13;;
70757;SDS011;59316;52.964;7.102;2023-08-08T22:12:39;4.03;;;1.60;;
70757;SDS011;59316;52.964;7.102;2023-08-08T22:23:39;5.82;;;2.25;;
70757;SDS011;59316;52.964;7.102;2023-08-08T22:29:00;8.90;;;2.88;;
70757;SDS011;59316;52.964;7.102;2023-08-08T22:34:22;5.05;;;2.50;;
70757;SDS011;59316;52.964;7.102;2023-08-08T22:39:43;4.40;;;2.40;;
70757;SDS011;59316;52.964;7.102;2023-08-08T22:45:05;4.28;;;2.25;;
70757;SDS011;59316;52.964;7.102;2023-08-08T22:50:27;7.65;;;2.47;;
70757;SDS011;59316;52.964;7.102;2023-08-08T22:55:49;5.85;;;2.30;;
70757;SDS011;59316;52.964;7.102;2023-08-08T23:01:12;5.78;;;3.13;;
70757;SDS011;59316;52.964;7.102;2023-08-08T23:11:55;7.65;;;3.80;;
70757;SDS011;59316;52.964;7.102;2023-08-08T23:17:17;7.32;;;3.58;;
70757;SDS011;59316;52.964;7.102;2023-08-08T23:22:38;7.63;;;4.45;;
70757;SDS011;59316;52.964;7.102;2023-08-08T23:28:00;12.27;;;4.68;;
70757;SDS011;59316;52.964;7.102;2023-08-08T23:33:21;11.50;;;4.60;;
70757;SDS011;59316;52.964;7.102;2023-08-08T23:38:43;17.17;;;5.68;;
70757;SDS011;59316;52.964;7.102;2023-08-08T23:44:04;8.85;;;4.72;;
70757;SDS011;59316;52.964;7.102;2023-08-08T23:49:26;13.77;;;4.50;;
70757;SDS011;59316;52.964;7.102;2023-08-08T23:54:47;12.98;;;5.53;;
